Time;durP1;ratioP1;P1;durP2;ratioP2;P2;SDS_P1;SDS_P2;PMS_P1;PMS_P2;Temp;Humidity;BMP_temperature;BMP_pressure;BME280_temperature;BME280_humidity;BME280_pressure;Samples;Min_cycle;Max_cycle;Signal;HPM_P1;HPM_P2
2022/01/15 00:01:05;;;;;;;13.55;5.17;;;;;;;1.64;81.37;101267.27;1594279;89;25702;-79
2022/01/15 00:03:31;;;;;;;14.38;4.17;;;;;;;1.61;81.57;101264.37;1593976;89;25512;-80
2022/01/15 00:05:58;;;;;;;19.55;4.55;;;;;;;1.59;81.44;101268.94;1594631;88;26563;-80
2022/01/15 00:08:24;;;;;;;15.65;4.78;;;;;;;1.55;81.50;101271.44;1594640;89;26484;-80
2022/01/15 00:10:51;;;;;;;16.50;5.70;;;;;;;1.53;81.74;101273.35;1594189;88;27568;-80
2022/01/15 00:13:28;;;;;;;22.82;9.18;;;;;;;1.52;81.81;101280.89;1594044;89;25944;-80
2022/01/15 00:15:54;;;;;;;15.98;4.62;;;;;;;1.51;81.89;101254.14;1593021;88;25803;-80
2022/01/15 00:18:18;;;;;;;16.02;4.75;;;;;;;1.51;81.84;101273.94;1593700;89;25861;-80
2022/01/15 00:20:44;;;;;;;13.10;4.53;;;;;;;1.49;81.89;101274.06;1594397;88;26552;-80
2022/01/15 00:23:10;;;;;;;14.58;5.00;;;;;;;1.46;81.87;101269.00;1593927;89;27485;-80
2022/01/15 00:25:36;;;;;;;18.30;5.00;;;;;;;1.46;81.93;101261.55;1593979;88;25843;-80
2022/01/15 00:28:03;;;;;;;14.58;4.72;;;;;;;1.46;81.92;101268.14;1576407;90;25777;-80
2022/01/15 00:30:29;;;;;;;15.40;4.78;;;;;;;1.44;81.75;101276.19;1576295;90;26570;-80
2022/01/15 00:32:56;;;;;;;20.45;5.00;;;;;;;1.41;81.77;101268.48;1576404;90;26133;-80
2022/01/15 00:35:24;;;;;;;17.45;4.70;;;;;;;1.40;81.94;101268.13;1576659;90;26892;-80
2022/01/15 00:37:50;;;;;;;15.18;4.50;;;;;;;1.37;82.03;101272.30;1576680;90;25900;-80
2022/01/15 00:40:20;;;;;;;14.87;5.35;;;;;;;1.37;82.08;101275.41;1576802;90;25849;-80
2022/01/15 00:42:46;;;;;;;15.13;4.72;;;;;;;1.37;82.28;101262.21;1576065;90;26746;-79
2022/01/15 00:45:19;;;;;;;22.45;6.03;;;;;;;1.37;82.10;101270.13;1576790;90;26013;-81
2022/01/15 00:47:42;;;;;;;13.08;3.75;;;;;;;1.36;82.27;101265.35;1576130;90;27505;-80
2022/01/15 00:50:10;;;;;;;16.93;4.80;;;;;;;1.36;82.01;101277.70;1576784;90;25366;-80
2022/01/15 00:52:37;;;;;;;18.20;5.17;;;;;;;1.32;82.27;101275.77;1576124;90;25869;-80
2022/01/15 00:55:06;;;;;;;14.10;4.78;;;;;;;1.33;82.38;101283.19;1576484;90;25904;-80
2022/01/15 00:57:32;;;;;;;16.87;5.33;;;;;;;1.31;82.34;101271.43;1594408;89;25878;-79
2022/01/15 00:59:58;;;;;;;16.05;4.33;;;;;;;1.32;82.51;101280.20;1594758;89;28349;-80
2022/01/15 01:02:24;;;;;;;21.97;5.30;;;;;;;1.29;82.36;101282.58;1567894;90;26011;-80
2022/01/15 01:04:50;;;;;;;16.30;4.90;;;;;;;1.27;82.56;101283.17;1594367;89;25846;-79
2022/01/15 01:07:17;;;;;;;20.85;5.42;;;;;;;1.26;82.62;101270.91;1576385;90;26487;-80
2022/01/15 01:10:10;;;;;;;18.40;5.12;;;;;;;1.26;82.77;101285.92;1553921;90;25997;-80
2022/01/15 01:23:07;;;;;;;18.62;4.90;;;;;;;1.12;83.01;101288.22;1576282;90;26619;-80
2022/01/15 01:25:41;;;;;;;21.15;5.05;;;;;;;1.13;83.22;101278.52;1576714;90;28384;-79
2022/01/15 01:28:10;;;;;;;18.48;5.28;;;;;;;1.13;83.29;101282.02;1576528;90;25837;-80
2022/01/15 01:30:40;;;;;;;19.98;4.87;;;;;;;1.12;83.27;101284.73;1576798;90;25342;-80
2022/01/15 01:33:17;;;;;;;15.23;3.12;;;;;;;1.10;83.37;101278.73;1576203;90;25917;-80
2022/01/15 01:38:06;;;;;;;16.95;4.25;;;;;;;1.08;83.32;101289.87;1594394;89;27474;-79
2022/01/15 01:40:37;;;;;;;21.30;4.40;;;;;;;1.07;83.40;101288.20;1594103;89;25852;-80
2022/01/15 01:43:27;;;;;;;15.18;5.00;;;;;;;1.04;83.50;101287.09;1576153;90;25698;-80
2022/01/15 01:45:31;;;;;;;16.93;4.72;;;;;;;1.04;83.60;101294.53;1575781;90;25960;-79
2022/01/15 01:47:57;;;;;;;15.40;4.05;;;;;;;1.04;83.63;101291.89;1576386;90;26022;-80
2022/01/15 01:50:27;;;;;;;17.85;4.55;;;;;;;1.05;83.65;101295.38;1594202;88;27489;-80
2022/01/15 01:52:57;;;;;;;16.82;4.60;;;;;;;1.04;83.73;101298.48;1567620;90;25834;-79
2022/01/15 01:55:27;;;;;;;22.62;5.10;;;;;;;1.05;83.57;101295.38;1594288;89;25782;-81
2022/01/15 01:57:55;;;;;;;15.15;4.30;;;;;;;1.02;83.70;101291.63;1576675;90;25980;-80
2022/01/15 02:00:25;;;;;;;18.05;4.65;;;;;;;1.03;83.80;101291.52;1576340;90;25955;-82
2022/01/15 02:02:53;;;;;;;18.65;4.00;;;;;;;1.01;83.90;101282.86;1594236;89;28299;-81
2022/01/15 02:05:20;;;;;;;22.22;5.87;;;;;;;1.02;83.96;101281.08;1594065;89;25492;-80
2022/01/15 02:07:48;;;;;;;17.23;5.05;;;;;;;1.00;83.83;101266.69;1568114;91;25818;-80
2022/01/15 02:10:18;;;;;;;20.25;5.33;;;;;;;1.00;83.92;101273.28;1594234;89;26609;-80
2022/01/15 02:12:48;;;;;;;15.45;4.12;;;;;;;0.98;83.81;101273.02;1594153;89;26528;-79
2022/01/15 02:15:18;;;;;;;15.75;5.00;;;;;;;0.96;83.92;101277.09;1594233;89;28003;-80
2022/01/15 02:17:46;;;;;;;20.48;4.67;;;;;;;0.96;84.01;101277.56;1576546;90;33371;-80
2022/01/15 02:25:48;;;;;;;20.12;5.20;;;;;;;0.88;84.07;101287.32;1576510;90;25849;-79
2022/01/15 02:28:18;;;;;;;22.00;5.83;;;;;;;0.86;84.08;101291.02;1597789;89;27493;-80
2022/01/15 02:30:45;;;;;;;19.15;5.17;;;;;;;0.83;84.34;101288.61;1619346;88;25988;-80
2022/01/15 02:33:11;;;;;;;15.43;4.92;;;;;;;0.81;84.45;101285.23;1619795;87;25790;-80
2022/01/15 02:35:38;;;;;;;23.92;5.45;;;;;;;0.83;84.40;101295.20;1601506;89;25935;-80
2022/01/15 02:38:07;;;;;;;20.97;6.50;;;;;;;0.82;84.50;101288.23;1619739;87;26608;-80
2022/01/15 02:40:36;;;;;;;17.25;5.37;;;;;;;0.82;84.50;101289.08;1619846;88;27637;-79
2022/01/15 02:43:10;;;;;;;19.27;4.62;;;;;;;0.83;84.56;101285.97;1619388;88;25875;-80
2022/01/15 02:45:41;;;;;;;17.95;4.92;;;;;;;0.82;84.46;101293.50;1619551;88;25738;-80
2022/01/15 02:48:15;;;;;;;13.38;4.87;;;;;;;0.81;84.55;101295.78;1619639;88;25795;-80
2022/01/15 02:50:43;;;;;;;24.00;6.87;;;;;;;0.79;84.58;101287.99;1620201;88;25795;-79
2022/01/15 02:53:12;;;;;;;17.17;5.33;;;;;;;0.79;84.67;101285.36;1619702;88;27473;-80
2022/01/15 02:55:47;;;;;;;24.37;5.37;;;;;;;0.78;84.65;101292.88;1619613;88;25829;-80
2022/01/15 02:58:16;;;;;;;20.40;5.92;;;;;;;0.77;84.65;101295.14;1619759;88;26241;-80
2022/01/15 03:00:42;;;;;;;18.05;5.12;;;;;;;0.72;84.69;101284.94;1619550;88;26559;-80
2022/01/15 03:03:09;;;;;;;16.48;5.08;;;;;;;0.69;84.89;101293.52;1619594;88;25829;-79
2022/01/15 03:05:35;;;;;;;26.73;5.60;;;;;;;0.67;84.80;101291.00;1619687;88;27604;-80
2022/01/15 03:08:02;;;;;;;12.58;4.35;;;;;;;0.63;84.82;101297.44;1619481;88;26874;-80
2022/01/15 03:10:29;;;;;;;15.48;4.58;;;;;;;0.61;85.04;101301.13;1619698;88;25729;-80
2022/01/15 03:12:57;;;;;;;21.48;4.90;;;;;;;0.58;85.11;101296.91;1619546;88;26541;-80
2022/01/15 03:15:23;;;;;;;14.15;3.85;;;;;;;0.57;85.10;101300.50;1619260;88;25881;-80
2022/01/15 03:17:51;;;;;;;12.18;4.62;;;;;;;0.54;85.10;101297.22;1619928;88;27477;-81
2022/01/15 03:20:20;;;;;;;18.42;4.40;;;;;;;0.53;85.22;101288.95;1619484;88;26094;-79
2022/01/15 03:22:47;;;;;;;20.32;5.28;;;;;;;0.50;85.23;101288.69;1619272;88;25904;-80
2022/01/15 03:25:13;;;;;;;14.33;4.20;;;;;;;0.50;85.17;101291.79;1619647;88;26628;-80
2022/01/15 03:27:40;;;;;;;10.95;4.22;;;;;;;0.49;85.29;101288.80;1606207;88;25907;-80
2022/01/15 03:30:11;;;;;;;15.98;4.20;;;;;;;0.49;85.38;101287.48;1593855;89;28871;-80
2022/01/15 03:32:42;;;;;;;20.37;4.75;;;;;;;0.47;85.42;101282.30;1575895;90;26176;-79
2022/01/15 03:35:06;;;;;;;20.88;4.40;;;;;;;0.47;85.63;101290.70;1575703;90;26590;-79
2022/01/15 03:37:33;;;;;;;15.68;3.85;;;;;;;0.47;85.55;101290.70;1576255;90;25886;-80
2022/01/15 03:39:59;;;;;;;16.00;4.22;;;;;;;0.44;85.47;101297.48;1576135;90;25878;-79
2022/01/15 03:42:25;;;;;;;17.35;4.40;;;;;;;0.42;85.59;101294.12;1593753;89;27656;-80
2022/01/15 03:44:51;;;;;;;14.23;4.40;;;;;;;0.38;85.71;101297.91;1593304;89;26530;-80
2022/01/15 03:47:18;;;;;;;17.30;4.67;;;;;;;0.35;85.76;101298.96;1593469;88;26444;-80
2022/01/15 03:49:44;;;;;;;17.77;4.80;;;;;;;0.35;85.90;101303.38;1593921;89;25985;-80
2022/01/15 03:52:11;;;;;;;15.13;3.98;;;;;;;0.34;85.94;101304.34;1575750;90;25822;-79
2022/01/15 03:54:38;;;;;;;28.07;4.42;;;;;;;0.34;86.05;101305.66;1594074;89;28378;-80
2022/01/15 03:57:05;;;;;;;15.85;4.05;;;;;;;0.33;86.07;101305.28;1593851;89;25931;-80
2022/01/15 03:59:32;;;;;;;17.27;3.47;;;;;;;0.31;86.16;101309.34;1593943;88;25909;-79
2022/01/15 04:01:58;;;;;;;15.80;5.12;;;;;;;0.32;86.18;101299.16;1575898;90;25944;-80
2022/01/15 04:04:25;;;;;;;16.57;5.35;;;;;;;0.32;86.33;101299.66;1593987;89;26537;-80
2022/01/15 04:06:51;;;;;;;16.70;4.90;;;;;;;0.31;86.32;101292.69;1594163;89;27505;-80
2022/01/15 04:09:17;;;;;;;16.87;4.35;;;;;;;0.28;86.48;101287.14;1594208;89;26610;-80
2022/01/15 04:11:45;;;;;;;11.78;3.15;;;;;;;0.27;86.45;101285.94;1575940;90;25869;-80
2022/01/15 04:14:12;;;;;;;11.83;4.12;;;;;;;0.27;86.50;101285.94;1593821;89;25973;-80
2022/01/15 04:16:38;;;;;;;16.00;4.17;;;;;;;0.26;86.48;101292.14;1593969;89;25916;-80
2022/01/15 04:19:07;;;;;;;17.60;4.30;;;;;;;0.26;86.50;101296.09;1594070;89;27646;-80
2022/01/15 04:21:35;;;;;;;22.67;4.37;;;;;;;0.25;86.57;101307.59;1553922;90;26616;-81
2022/01/15 04:24:03;;;;;;;20.55;5.70;;;;;;;0.25;86.58;101313.72;1594097;89;25806;-80
2022/01/15 04:26:30;;;;;;;19.40;4.85;;;;;;;0.24;86.61;101315.12;1593748;88;26573;-80
2022/01/15 04:29:04;;;;;;;23.00;4.80;;;;;;;0.23;86.57;101318.72;1593947;89;26578;-80
2022/01/15 04:31:25;;;;;;;15.15;4.78;;;;;;;0.22;86.60;101322.28;1592503;88;27605;-81
2022/01/15 04:33:52;;;;;;;15.65;5.30;;;;;;;0.21;86.64;101319.30;1572592;89;26039;-80
2022/01/15 04:36:18;;;;;;;15.43;3.33;;;;;;;0.22;86.75;101322.28;1594091;89;25855;-80
2022/01/15 04:38:45;;;;;;;19.25;3.65;;;;;;;0.24;86.81;101320.39;1594311;89;26538;-80
2022/01/15 04:41:11;;;;;;;20.15;3.92;;;;;;;0.22;86.77;101323.59;1593899;88;25554;-80
2022/01/15 04:43:37;;;;;;;17.98;3.77;;;;;;;0.21;86.83;101326.73;1593842;89;27553;-80
2022/01/15 04:46:03;;;;;;;9.18;4.05;;;;;;;0.19;86.75;101331.26;1593932;89;25784;-80
2022/01/15 04:48:31;;;;;;;16.32;3.62;;;;;;;0.17;86.77;101342.84;1594337;88;25984;-79
2022/01/15 04:50:58;;;;;;;17.87;4.37;;;;;;;0.16;86.71;101351.20;1594195;88;25792;-78
2022/01/15 04:53:24;;;;;;;14.85;4.33;;;;;;;0.16;86.81;101349.89;1593670;89;25986;-80
2022/01/15 04:55:50;;;;;;;12.05;4.12;;;;;;;0.18;86.99;101350.62;1593749;89;27487;-79
2022/01/15 04:58:17;;;;;;;17.27;3.90;;;;;;;0.20;86.90;101357.95;1594134;88;25779;-79
2022/01/15 05:00:43;;;;;;;20.72;4.47;;;;;;;0.20;86.91;101359.27;1594248;88;25611;-80
2022/01/15 05:03:09;;;;;;;15.20;4.70;;;;;;;0.20;86.91;101364.55;1593970;89;25860;-80
2022/01/15 05:05:36;;;;;;;22.40;5.55;;;;;;;0.21;86.93;101361.44;1594041;89;25342;-79
2022/01/15 05:08:05;;;;;;;16.60;3.52;;;;;;;0.22;86.87;101363.12;1593993;89;27480;-81
2022/01/15 05:10:30;;;;;;;13.85;4.12;;;;;;;0.22;86.87;101367.06;1593752;89;25837;-80
2022/01/15 05:13:00;;;;;;;16.90;3.70;;;;;;;0.22;86.82;101363.12;1593860;88;25851;-81
2022/01/15 05:15:25;;;;;;;11.03;3.10;;;;;;;0.22;86.86;101364.43;1593662;88;26670;-81
2022/01/15 05:17:51;;;;;;;16.93;3.77;;;;;;;0.21;86.84;101362.30;1594296;89;25952;-80
2022/01/15 05:20:20;;;;;;;17.92;4.22;;;;;;;0.21;86.75;101366.25;1594075;89;27481;-79
2022/01/15 05:22:48;;;;;;;13.40;3.22;;;;;;;0.20;86.84;101366.33;1593798;89;25802;-79
2022/01/15 05:25:16;;;;;;;14.95;3.77;;;;;;;0.17;86.86;101363.42;1593545;89;26489;-79
2022/01/15 05:27:44;;;;;;;19.35;4.67;;;;;;;0.17;86.79;101370.50;1593848;88;26719;-79
2022/01/15 05:30:12;;;;;;;23.52;4.20;;;;;;;0.17;86.82;101371.81;1593754;89;25944;-79
2022/01/15 05:32:39;;;;;;;19.73;4.00;;;;;;;0.16;86.77;101374.92;1576083;90;28224;-80
2022/01/15 05:35:07;;;;;;;18.95;4.10;;;;;;;0.14;86.87;101379.91;1593552;89;25380;-79
2022/01/15 05:37:33;;;;;;;20.80;4.40;;;;;;;0.15;86.80;101378.48;1593899;89;25862;-80
2022/01/15 05:39:59;;;;;;;18.75;3.42;;;;;;;0.14;86.83;101374.17;1594065;89;25857;-80
2022/01/15 05:42:25;;;;;;;16.37;4.10;;;;;;;0.13;86.78;101376.42;1575861;90;25382;-81
2022/01/15 05:44:52;;;;;;;18.50;4.60;;;;;;;0.12;86.83;101367.31;1576101;90;28332;-80
2022/01/15 05:47:18;;;;;;;15.68;4.05;;;;;;;0.09;86.82;101363.09;1576154;90;25887;-80
2022/01/15 05:49:44;;;;;;;22.93;6.15;;;;;;;0.08;86.74;101372.42;1593887;89;25790;-80
2022/01/15 05:52:10;;;;;;;18.67;3.60;;;;;;;0.06;86.81;101375.16;1593453;89;26536;-80
2022/01/15 05:54:36;;;;;;;16.80;4.70;;;;;;;0.05;86.81;101367.34;1593749;89;25789;-80
2022/01/15 05:57:03;;;;;;;15.60;4.20;;;;;;;0.03;86.95;101377.13;1576217;90;27503;-81
2022/01/15 05:59:29;;;;;;;12.73;2.98;;;;;;;0.04;87.11;101377.52;1576104;90;25985;-80
2022/01/15 06:01:55;;;;;;;11.22;3.80;;;;;;;0.04;87.17;101381.00;1576046;90;26682;-81
2022/01/15 06:04:22;;;;;;;17.60;4.70;;;;;;;0.03;87.16;101386.35;1576047;90;25875;-80
2022/01/15 06:06:48;;;;;;;17.48;5.10;;;;;;;0.01;87.13;101391.73;1594051;89;25853;-80
2022/01/15 06:09:14;;;;;;;13.98;3.92;;;;;;;-0.02;87.01;101396.72;1594279;88;27487;-80
2022/01/15 06:11:41;;;;;;;14.65;4.33;;;;;;;-0.02;87.28;101401.13;1593772;89;26515;-80
2022/01/15 06:14:08;;;;;;;14.13;4.20;;;;;;;-0.02;87.16;101405.08;1576428;90;25765;-80
2022/01/15 06:16:34;;;;;;;15.53;3.42;;;;;;;-0.02;87.17;101412.52;1593910;89;26415;-80
2022/01/15 06:19:00;;;;;;;16.20;4.72;;;;;;;-0.02;87.40;101416.94;1604147;88;25969;-79
2022/01/15 06:21:26;;;;;;;20.65;6.10;;;;;;;-0.05;87.21;101418.47;1603729;88;27529;-80
2022/01/15 06:23:53;;;;;;;12.55;4.70;;;;;;;-0.03;87.23;101420.53;1603850;88;25939;-79
2022/01/15 06:26:19;;;;;;;22.30;5.00;;;;;;;-0.06;87.21;101416.77;1607903;87;25831;-80
2022/01/15 06:28:45;;;;;;;14.63;4.17;;;;;;;-0.07;87.45;101418.58;1611655;88;25819;-80
2022/01/15 06:31:12;;;;;;;16.77;4.60;;;;;;;-0.06;87.44;101418.94;1604619;87;26068;-79
2022/01/15 06:33:38;;;;;;;18.40;4.17;;;;;;;-0.07;87.53;101407.19;1604366;87;27486;-79
2022/01/15 06:36:05;;;;;;;17.20;4.87;;;;;;;-0.11;87.60;101403.89;1604362;87;26558;-79
2022/01/15 06:38:31;;;;;;;20.72;4.30;;;;;;;-0.11;87.74;101405.70;1604891;87;25787;-79
2022/01/15 06:40:57;;;;;;;20.08;4.90;;;;;;;-0.11;88.03;101404.39;1601178;89;26555;-79
2022/01/15 06:43:23;;;;;;;22.50;5.28;;;;;;;-0.11;87.98;101407.84;1601201;89;26741;-80
2022/01/15 06:45:50;;;;;;;19.50;5.70;;;;;;;-0.12;88.17;101402.22;1619418;88;27561;-80
2022/01/15 06:48:16;;;;;;;14.20;4.25;;;;;;;-0.13;88.19;101411.55;1619496;88;25929;-79
2022/01/15 06:50:43;;;;;;;17.25;5.03;;;;;;;-0.14;88.31;101408.05;1619553;88;26016;-80
2022/01/15 06:53:11;;;;;;;20.02;5.62;;;;;;;-0.14;88.26;101411.16;1619548;88;25828;-80
2022/01/15 06:55:37;;;;;;;17.50;5.60;;;;;;;-0.15;88.37;101407.67;1619636;88;25786;-80
2022/01/15 06:58:04;;;;;;;18.60;5.50;;;;;;;-0.15;88.53;101404.22;1620053;88;28277;-79
2022/01/15 07:00:30;;;;;;;22.98;5.20;;;;;;;-0.15;88.59;101411.62;1619460;87;25863;-79
2022/01/15 07:03:00;;;;;;;17.62;4.97;;;;;;;-0.14;88.59;101421.69;1619531;88;25834;-80
2022/01/15 07:05:24;;;;;;;19.40;5.25;;;;;;;-0.14;88.58;101425.64;1619369;87;26025;-80
2022/01/15 07:07:52;;;;;;;18.77;5.25;;;;;;;-0.16;88.62;101428.38;1620096;88;25750;-80
2022/01/15 07:10:19;;;;;;;13.85;3.80;;;;;;;-0.17;88.71;101425.85;1619775;88;27732;-79
2022/01/15 07:12:45;;;;;;;12.10;4.05;;;;;;;-0.16;88.63;101426.20;1619095;88;25749;-79
2022/01/15 07:15:14;;;;;;;22.87;5.67;;;;;;;-0.15;88.91;101433.18;1619674;88;25702;-82
2022/01/15 07:17:46;;;;;;;15.75;5.42;;;;;;;-0.14;89.01;101441.44;1619550;88;25786;-79
2022/01/15 07:20:14;;;;;;;21.25;5.25;;;;;;;-0.13;89.00;101441.83;1619872;88;25480;-80
2022/01/15 07:22:41;;;;;;;12.93;4.65;;;;;;;-0.11;89.07;101449.15;1619510;88;28195;-80
2022/01/15 07:25:09;;;;;;;23.12;6.67;;;;;;;-0.10;89.18;101440.30;1619589;87;26647;-80
2022/01/15 07:27:36;;;;;;;17.57;6.47;;;;;;;-0.09;89.11;101442.84;1619588;88;26554;-80
2022/01/15 07:30:06;;;;;;;19.07;5.95;;;;;;;-0.05;89.11;101438.22;1619456;88;26543;-81
2022/01/15 07:32:32;;;;;;;18.67;5.75;;;;;;;-0.04;89.17;101432.84;1619341;88;26013;-80
2022/01/15 07:34:59;;;;;;;18.65;4.40;;;;;;;-0.01;89.30;101437.92;1619618;88;27477;-79
2022/01/15 07:37:25;;;;;;;27.30;7.50;;;;;;;0.01;89.34;101447.03;1619669;88;25850;-80
2022/01/15 07:39:53;;;;;;;33.75;9.53;;;;;;;0.01;89.35;101441.77;1611861;88;25765;-80
2022/01/15 07:42:20;;;;;;;20.75;6.42;;;;;;;0.04;89.45;101441.58;1593978;89;26533;-80
2022/01/15 07:44:46;;;;;;;19.65;5.53;;;;;;;0.04;89.44;101442.90;1575688;90;26043;-79
2022/01/15 07:47:12;;;;;;;15.35;5.65;;;;;;;0.06;89.48;101446.74;1575884;90;27471;-80
2022/01/15 07:49:39;;;;;;;15.60;4.53;;;;;;;0.06;89.46;101438.84;1576000;90;26712;-80
2022/01/15 07:52:06;;;;;;;24.30;5.40;;;;;;;0.07;89.67;101447.09;1594070;89;25898;-80
2022/01/15 07:54:32;;;;;;;19.25;5.50;;;;;;;0.07;89.71;101440.05;1593945;89;25844;-80
2022/01/15 07:56:58;;;;;;;15.68;4.85;;;;;;;0.10;89.78;101444.28;1594511;89;25867;-80
2022/01/15 07:59:26;;;;;;;17.50;4.72;;;;;;;0.15;89.78;101440.88;1594175;88;27632;-80
2022/01/15 08:01:52;;;;;;;17.07;5.80;;;;;;;0.16;89.73;101442.09;1576254;90;25826;-80
2022/01/15 08:04:18;;;;;;;21.42;6.28;;;;;;;0.17;89.72;101445.58;1576415;90;26477;-82
2022/01/15 08:06:44;;;;;;;21.65;5.85;;;;;;;0.17;89.77;101448.22;1576646;90;25997;-81
2022/01/15 08:09:10;;;;;;;16.32;4.95;;;;;;;0.20;89.75;101455.44;1576362;90;25382;-84
2022/01/15 08:11:37;;;;;;;25.37;5.83;;;;;;;0.25;89.90;101462.58;1576175;90;27466;-81
2022/01/15 08:14:03;;;;;;;22.00;6.70;;;;;;;0.29;89.75;101456.63;1575965;90;26096;-80
2022/01/15 08:16:30;;;;;;;23.15;5.95;;;;;;;0.32;89.67;101459.07;1576296;90;25844;-80
2022/01/15 08:18:57;;;;;;;15.88;6.00;;;;;;;0.35;89.62;101462.34;1576463;90;25846;-79
2022/01/15 08:21:23;;;;;;;14.68;4.75;;;;;;;0.38;89.64;101468.73;1576507;90;25882;-79
2022/01/15 08:23:49;;;;;;;23.25;6.20;;;;;;;0.43;89.67;101473.67;1594055;89;27468;-79
2022/01/15 08:26:15;;;;;;;18.32;5.72;;;;;;;0.43;89.66;101461.81;1593966;89;25803;-79
2022/01/15 08:28:42;;;;;;;14.93;4.83;;;;;;;0.46;89.66;101468.22;1594074;89;25849;-81
2022/01/15 08:31:08;;;;;;;18.82;5.62;;;;;;;0.50;89.67;101460.48;1576039;90;26799;-79
2022/01/15 08:33:34;;;;;;;15.20;4.75;;;;;;;0.53;89.55;101464.23;1594001;89;25781;-79
2022/01/15 08:36:01;;;;;;;18.50;6.67;;;;;;;0.54;89.52;101473.36;1593689;89;28403;-79
2022/01/15 08:38:27;;;;;;;13.35;6.22;;;;;;;0.58;89.53;101476.63;1594251;89;26005;-79
2022/01/15 08:40:53;;;;;;;15.98;5.28;;;;;;;0.61;89.54;101488.30;1594621;89;25373;-79
2022/01/15 08:43:19;;;;;;;13.30;5.08;;;;;;;0.65;89.53;101493.73;1619465;88;26813;-79
2022/01/15 08:45:47;;;;;;;17.17;5.17;;;;;;;0.68;89.48;101491.73;1619552;88;25605;-80
2022/01/15 08:48:19;;;;;;;16.25;4.60;;;;;;;0.74;89.32;101494.45;1620016;88;27455;-79
2022/01/15 08:50:42;;;;;;;22.67;5.72;;;;;;;0.77;89.23;101488.95;1619279;88;26016;-80
2022/01/15 08:53:08;;;;;;;25.57;5.50;;;;;;;0.78;89.18;101494.61;1619779;88;25777;-79
2022/01/15 08:55:35;;;;;;;14.13;3.75;;;;;;;0.81;89.23;101486.50;1619524;88;25789;-79
2022/01/15 08:58:02;;;;;;;18.45;5.37;;;;;;;0.84;89.17;101486.75;1619679;88;25985;-79
2022/01/15 09:00:29;;;;;;;16.15;5.10;;;;;;;0.89;89.23;101485.97;1619618;88;28279;-80
2022/01/15 09:02:56;;;;;;;24.12;6.80;;;;;;;0.89;89.07;101480.23;1597320;88;25856;-80
2022/01/15 09:05:24;;;;;;;17.50;6.05;;;;;;;0.93;89.14;101489.62;1619732;88;25719;-79
2022/01/15 09:07:51;;;;;;;19.98;4.83;;;;;;;0.97;89.11;101496.84;1619664;88;26167;-79
2022/01/15 09:10:18;;;;;;;24.90;6.03;;;;;;;1.02;89.10;101502.66;1619573;88;26561;-79
2022/01/15 09:12:45;;;;;;;17.07;6.15;;;;;;;1.05;88.90;101501.97;1619817;88;27670;-80
2022/01/15 09:15:11;;;;;;;14.78;4.90;;;;;;;1.07;88.73;101504.03;1619698;88;26511;-79
2022/01/15 09:17:37;;;;;;;15.50;5.62;;;;;;;1.09;88.61;101510.05;1619740;88;25846;-79
2022/01/15 09:20:06;;;;;;;12.37;4.78;;;;;;;1.10;88.58;101507.79;1619800;88;25861;-79
2022/01/15 09:22:32;;;;;;;19.05;5.33;;;;;;;1.12;88.76;101501.08;1619316;88;26002;-80
2022/01/15 09:25:00;;;;;;;16.32;5.70;;;;;;;1.15;88.56;101504.37;1619553;88;28283;-79
2022/01/15 09:30:13;;;;;;;18.55;6.20;;;;;;;1.24;88.49;101511.64;1619615;88;25771;-80
2022/01/15 09:32:49;;;;;;;14.03;6.25;;;;;;;1.28;88.51;101520.21;1619548;88;26557;-79
2022/01/15 09:35:20;;;;;;;20.08;6.03;;;;;;;1.31;88.08;101519.98;1619599;88;25873;-79
2022/01/15 09:37:47;;;;;;;18.90;7.67;;;;;;;1.32;88.00;101521.69;1619704;88;27593;-79
2022/01/15 09:40:14;;;;;;;17.52;6.17;;;;;;;1.32;87.96;101519.91;1619700;88;25955;-79
2022/01/15 09:42:44;;;;;;;17.05;5.87;;;;;;;1.38;88.00;101523.91;1619903;88;25782;-80
2022/01/15 09:45:11;;;;;;;27.80;7.30;;;;;;;1.40;88.03;101514.08;1619707;88;25836;-80
2022/01/15 09:47:38;;;;;;;23.40;6.90;;;;;;;1.42;87.85;101510.86;1620189;88;25349;-79
2022/01/15 09:50:10;;;;;;;22.62;5.72;;;;;;;1.44;87.66;101508.95;1619726;88;28318;-79
2022/01/15 09:52:37;;;;;;;25.80;6.70;;;;;;;1.45;87.73;101518.58;1619579;88;25952;-79
2022/01/15 09:55:08;;;;;;;20.05;7.37;;;;;;;1.48;87.93;101513.06;1619911;88;25711;-80
2022/01/15 09:57:35;;;;;;;;;;;;;;;1.52;87.84;101521.98;1622359;88;26555;-81
2022/01/15 10:00:14;;;;;;;22.95;6.70;;;;;;;1.52;87.23;101528.59;1601243;89;25899;-81
2022/01/15 10:02:46;;;;;;;24.65;7.30;;;;;;;1.48;87.23;101522.30;1619928;88;27473;-80
2022/01/15 10:05:15;;;;;;;19.10;7.78;;;;;;;1.50;87.53;101523.89;1619674;87;25889;-79
2022/01/15 10:08:04;;;;;;;15.05;6.90;;;;;;;1.52;87.38;101510.58;1601908;89;25946;-81
2022/01/15 10:10:33;;;;;;;19.37;6.50;;;;;;;1.53;87.20;101509.17;1599466;89;25870;-80
2022/01/15 10:13:22;;;;;;;20.62;5.05;;;;;;;1.54;86.92;101510.84;1601233;88;25919;-80
2022/01/15 10:15:59;;;;;;;19.67;6.08;;;;;;;1.53;87.15;101501.72;1601278;88;28485;-80
2022/01/15 10:18:32;;;;;;;17.75;6.05;;;;;;;1.54;86.99;101502.07;1616093;88;25941;-79
2022/01/15 10:21:22;;;;;;;20.12;5.17;;;;;;;1.57;87.43;101511.11;1619923;87;25840;-80
2022/01/15 10:23:54;;;;;;;19.73;7.00;;;;;;;1.62;87.24;101510.80;1601376;89;25906;-80
2022/01/15 10:26:27;;;;;;;19.90;7.08;;;;;;;1.63;86.88;101508.50;1619597;87;26038;-80
2022/01/15 10:29:02;;;;;;;17.87;6.67;;;;;;;1.66;87.22;101514.44;1619665;87;28165;-79
2022/01/15 10:31:31;;;;;;;13.22;5.90;;;;;;;1.72;87.21;101523.24;1619540;88;26826;-81
2022/01/15 10:34:02;;;;;;;21.53;6.20;;;;;;;1.75;87.14;101519.55;1619798;88;26624;-80
2022/01/15 10:36:33;;;;;;;20.57;6.80;;;;;;;1.75;86.47;101519.55;1613710;87;26653;-80
2022/01/15 10:39:20;;;;;;;21.65;6.87;;;;;;;1.76;86.81;101527.83;1620231;88;26494;-80
2022/01/15 10:41:48;;;;;;;35.40;12.70;;;;;;;1.79;86.82;101531.58;1619712;87;27670;-80
2022/01/15 10:44:36;;;;;;;17.15;7.45;;;;;;;1.80;86.44;101531.47;1601512;89;25898;-79
2022/01/15 10:47:09;;;;;;;18.85;7.97;;;;;;;1.83;86.69;101533.05;1601328;88;26546;-81
2022/01/15 10:49:37;;;;;;;21.65;8.45;;;;;;;1.87;86.51;101534.52;1619794;87;26558;-80
2022/01/15 10:52:20;;;;;;;14.30;6.17;;;;;;;1.86;86.04;101542.91;1619555;88;25923;-79
2022/01/15 10:55:00;;;;;;;19.00;5.97;;;;;;;1.86;85.78;101544.23;1619945;88;27484;-80
2022/01/15 10:57:38;;;;;;;16.12;6.92;;;;;;;1.86;85.73;101531.53;1597553;88;33343;-80
2022/01/15 11:00:10;;;;;;;19.12;6.72;;;;;;;1.85;85.87;101535.96;1619656;88;26558;-79
2022/01/15 11:02:39;;;;;;;14.07;6.50;;;;;;;1.88;86.16;101529.12;1619389;88;26218;-80
2022/01/15 11:05:31;;;;;;;17.32;6.50;;;;;;;1.93;86.15;101531.44;1619521;88;25897;-79
2022/01/15 11:08:09;;;;;;;19.35;6.05;;;;;;;1.96;85.91;101530.77;1619875;88;27486;-80
2022/01/15 11:11:00;;;;;;;20.97;6.17;;;;;;;2.01;86.10;101539.19;1618532;88;25975;-80
2022/01/15 11:13:33;;;;;;;16.17;6.33;;;;;;;2.11;85.69;101541.56;1593812;89;25811;-79
2022/01/15 11:16:05;;;;;;;;;;;;;;;2.24;86.85;101536.23;1578836;90;26583;-79
2022/01/15 11:18:38;;;;;;;17.25;6.20;;;;;;;2.43;86.88;101541.03;1576241;90;25857;-79
2022/01/15 11:21:11;;;;;;;19.87;6.85;;;;;;;2.47;84.19;101533.23;1576255;90;26936;-79
2022/01/15 11:23:40;;;;;;;19.27;5.70;;;;;;;2.50;84.50;101533.88;1576005;90;25841;-79
2022/01/15 11:26:12;;;;;;;20.90;6.00;;;;;;;2.51;83.50;101536.02;1576348;90;25845;-79
2022/01/15 11:28:39;;;;;;;14.15;5.17;;;;;;;2.52;83.00;101532.42;1575490;90;26043;-79
2022/01/15 11:31:09;;;;;;;16.32;6.10;;;;;;;2.50;82.95;101540.48;1576178;90;25975;-80
2022/01/15 11:33:49;;;;;;;20.10;5.67;;;;;;;2.51;83.63;101540.83;1576372;90;27722;-79
2022/01/15 11:36:38;;;;;;;11.27;5.00;;;;;;;2.51;83.27;101536.87;1576374;90;25859;-79
2022/01/15 11:39:12;;;;;;;21.75;5.45;;;;;;;2.51;82.62;101543.95;1576315;90;25922;-79
2022/01/15 11:41:53;;;;;;;17.42;5.90;;;;;;;2.55;82.82;101541.44;1597371;89;26028;-79
2022/01/15 11:44:35;;;;;;;15.78;5.95;;;;;;;2.57;83.13;101546.13;1601375;88;25833;-79
2022/01/15 11:47:22;;;;;;;16.80;6.87;;;;;;;2.64;82.98;101550.88;1598507;89;28545;-79
2022/01/15 11:49:50;;;;;;;14.63;6.15;;;;;;;2.69;82.73;101546.11;1601355;88;26059;-79
2022/01/15 11:52:23;;;;;;;17.35;6.50;;;;;;;2.69;81.75;101547.43;1601246;89;26010;-79